Clare Christine — V2DT7 — position and weather

sailwx.info

Track history (hours):
 
Tides and Currents Weather Stations Pressure Air Temp Water Temp Dewpoint Dewpoint Depression Visibility Wind Speed Wind Dir Waves Ship Positions

Clare Christine

Last reported at 2016-May-05 17:33 UTC. Time now 2016-May-05 18:00 UTC.
Position N 52°24' E 004°52'.

Length 89 m; draft 3.5 m.

Type: Cargo ship. MMSI: 305379000.

Date/timePositionNaut miles runAvg speedWind from/ knotsBaromVisibWave heightAir tempDewpointWater temp
2016-May-05 17:33N 52°24' E 004°52'9 8.9
2016-May-05 16:34N 52°28' E 004°39'4 3.8
2016-May-05 15:34N 52°28' E 004°33'5 5.1
2016-May-05 14:33N 52°29' E 004°25'7 7.4
2016-May-05 13:33N 52°28' E 004°12'7 6.6
2016-May-05 12:30N 52°26' E 004°01'0 0.1
2016-May-05 11:33N 52°26' E 004°01'0 0.1
2016-May-05 10:33N 52°26' E 004°01'0 0.0
2016-May-05 09:33N 52°26' E 004°01'0 0.0
2016-May-05 08:33N 52°26' E 004°01'0 0.0
2016-May-05 07:33N 52°26' E 004°01'0 0.0
2016-May-05 06:33N 52°26' E 004°01'0 0.0
2016-May-05 05:33N 52°26' E 004°01'0 0.0
2016-May-05 04:30N 52°26' E 004°01'0 0.0
2016-May-05 03:33N 52°26' E 004°01'0 0.0
2016-May-05 02:33N 52°26' E 004°01'0 0.0
2016-May-05 01:33N 52°26' E 004°01'0 0.0
2016-May-05 00:33N 52°26' E 004°01'0 0.0
2016-May-04 23:33N 52°26' E 004°01'0 0.1
2016-May-04 22:33N 52°26' E 004°01'0 0.0
2016-May-04 21:30N 52°26' E 004°01'0 0.0
2016-May-04 20:33N 52°26' E 004°01'0 0.0
2016-May-04 19:33N 52°26' E 004°01'0 0.0
2016-May-04 18:33N 52°26' E 004°01'0 0.0
2016-May-04 17:33N 52°26' E 004°01'0 0.1
2016-May-04 16:30N 52°26' E 004°01'0 0.0
2016-May-04 15:33N 52°26' E 004°01'0 0.1
2016-May-04 14:33N 52°26' E 004°01'0 0.0
2016-May-04 13:33N 52°26' E 004°01'0 0.0
2016-May-04 12:33N 52°26' E 004°01'0 0.0
2016-May-04 11:33N 52°26' E 004°01'0 0.0
2016-May-04 10:33N 52°26' E 004°01'0 0.1
2016-May-04 09:33N 52°26' E 004°01'0 0.0
2016-May-04 08:33N 52°26' E 004°01'0 0.0
2016-May-04 07:33N 52°26' E 004°01'0 0.0
2016-May-04 06:33N 52°26' E 004°01'0 0.0
2016-May-04 05:33N 52°26' E 004°01'0 0.1
2016-May-04 04:30N 52°26' E 004°01'6 6.5
2016-May-04 03:33N 52°24' E 003°52'1110.0
2016-May-04 02:26N 52°21' E 003°34'910.3
2016-May-04 01:33N 52°15' E 003°23'26 7.7
2016-May-03 22:06N 51°56' E 002°51'11 7.3
2016-May-03 20:33N 51°53' E 002°34'7 6.6
2016-May-03 19:33N 51°53' E 002°24'6 6.0
2016-May-03 18:33N 51°53' E 002°14'5 5.3
2016-May-03 17:33N 51°52' E 002°06'5 5.1
2016-May-03 16:33N 51°50' E 001°58'8 8.0
2016-May-03 15:33N 51°49' E 001°45'9 9.3
2016-May-03 14:33N 51°47' E 001°30'1110.9
2016-May-03 13:33N 51°40' E 001°17'1111.2
2016-May-03 12:32N 51°33' E 001°03'2 2.1
2016-May-03 11:32N 51°31' E 001°01'0 0.0
2016-May-03 10:32N 51°31' E 001°01'0 0.0
2016-May-03 09:32N 51°31' E 001°00'0 0.1
2016-May-03 08:32N 51°31' E 001°00'0 0.0
2016-May-03 07:32N 51°31' E 001°00'0 0.0
2016-May-03 06:29N 51°31' E 001°00'0 0.0
2016-May-03 05:29N 51°31' E 001°00'0 0.1
2016-May-03 04:32N 51°31' E 001°00'0 0.1
2016-May-03 03:32N 51°31' E 001°01'0 0.0
2016-May-03 02:32N 51°31' E 001°01'0 0.0
2016-May-03 01:32N 51°31' E 001°01'0 0.0
2016-May-03 00:32N 51°31' E 001°01'0 0.0
2016-May-02 23:32N 51°31' E 001°01'0 0.0
2016-May-02 22:32N 51°31' E 001°01'0 0.0
2016-May-02 21:32N 51°31' E 001°01'0 0.0
2016-May-02 20:23N 51°31' E 001°00'0 0.0
2016-May-02 19:29N 51°31' E 001°00'0 0.1
2016-May-02 18:29N 51°31' E 001°00'0 0.0
2016-May-02 17:32N 51°31' E 001°00'0 0.0
2016-May-02 16:32N 51°31' E 001°00'0 0.0
2016-May-02 15:32N 51°31' E 001°00'0 0.0
2016-May-02 14:32N 51°31' E 001°00'0 0.0
2016-May-02 13:32N 51°31' E 001°01'0 0.0
2016-May-02 12:32N 51°31' E 001°01'0 0.0
2016-May-02 11:32N 51°31' E 001°01'0 0.0
2016-May-02 10:32N 51°31' E 001°01'1 0.5
2016-May-02 09:33N 51°31' E 001°01'1010.3
2016-May-02 08:33N 51°29' E 000°45'1110.8
2016-May-02 07:33N 51°29' E 000°28'8 7.5
2016-May-02 06:33N 51°28' E 000°16'4 3.7
2016-May-02 05:33N 51°29' E 000°10'0 0.0
2016-May-02 04:33N 51°29' E 000°10'0 0.0
2016-May-02 03:33N 51°29' E 000°10'0 0.0
2016-May-02 02:33N 51°29' E 000°10'0 0.0
2016-May-02 01:33N 51°29' E 000°10'0 0.0
2016-May-02 00:33N 51°29' E 000°10'0 0.0
2016-May-01 23:33N 51°29' E 000°10'0 0.0
2016-May-01 22:33N 51°29' E 000°10'0 0.0
2016-May-01 21:33N 51°29' E 000°10'0 0.0
2016-May-01 20:33N 51°29' E 000°10'0 0.0
2016-May-01 19:33N 51°29' E 000°10'0 0.0
2016-May-01 18:33N 51°29' E 000°10'0 0.0
2016-May-01 17:30N 51°29' E 000°10'0 0.0
2016-May-01 16:33N 51°29' E 000°10'0 0.0
2016-May-01 15:33N 51°29' E 000°10'0 0.0
2016-May-01 14:33N 51°29' E 000°10'0 0.0
2016-May-01 13:33N 51°29' E 000°10'0 0.0
2016-May-01 12:33N 51°29' E 000°10'0 0.0
2016-May-01 11:33N 51°29' E 000°10'0 0.0
2016-May-01 10:33N 51°29' E 000°10'0 0.0
2016-May-01 09:33N 51°29' E 000°10'0 0.0
2016-May-01 08:33N 51°29' E 000°10'0 0.0
2016-May-01 07:33N 51°29' E 000°10'0 0.0
2016-May-01 06:33N 51°29' E 000°10'0 0.0
2016-May-01 05:33N 51°29' E 000°10'0 0.0
2016-May-01 04:33N 51°29' E 000°10'0 0.0
2016-May-01 03:33N 51°29' E 000°10'3 2.6
2016-May-01 02:34N 51°28' E 000°14'8 8.1
2016-May-01 01:33N 51°29' E 000°27'9 8.8
2016-May-01 00:33N 51°30' E 000°41'9 8.9
2016-Apr-30 23:33N 51°30' E 000°56'2 1.6
2016-Apr-30 22:30N 51°30' E 000°58'0 0.0
2016-Apr-30 21:33N 51°30' E 000°58'0 0.0
2016-Apr-30 20:33N 51°30' E 000°58'0 0.0
2016-Apr-30 19:33N 51°30' E 000°58'0 0.1
2016-Apr-30 18:27N 51°30' E 000°58'0 0.1
2016-Apr-30 17:33N 51°30' E 000°58'0 0.0
2016-Apr-30 16:33N 51°30' E 000°58'0 0.0
2016-Apr-30 15:33N 51°30' E 000°58'0 0.0
2016-Apr-30 14:33N 51°30' E 000°58'0 0.1
2016-Apr-30 13:33N 51°30' E 000°58'5 4.8
2016-Apr-30 12:33N 51°30' E 001°06'10 9.9
2016-Apr-30 11:33N 51°29' E 001°22'9 8.9
2016-Apr-30 10:33N 51°24' E 001°34'9 8.6
2016-Apr-30 09:33N 51°16' E 001°37'9 8.7
2016-Apr-30 08:33N 51°07' E 001°40'1010.2
2016-Apr-30 07:33N 50°59' E 001°30'1110.4
2016-Apr-30 06:33N 50°50' E 001°22'41 9.8
2016-Apr-30 02:21N 50°26' E 000°30'911.1
2016-Apr-30 01:33N 50°23' E 000°16'1111.3
2016-Apr-30 00:33N 50°20' W 000°01'1111.2
2016-Apr-29 23:33N 50°17' W 000°17'104 9.5
2016-Apr-29 12:33N 49°50' W 002°54'1110.7
2016-Apr-29 11:33N 49°48' W 003°11'1110.7
2016-Apr-29 10:32N 49°49' W 003°27'1110.7
2016-Apr-29 09:33N 49°50' W 003°44'2310.4
2016-Apr-29 07:21N 49°51' W 004°19'1910.2
2016-Apr-29 05:25N 49°53' W 004°50'8 9.6
2016-Apr-29 04:33N 49°54' W 005°03'20 9.2
2016-Apr-29 02:20N 49°54' W 005°34'30 7.5
2016-Apr-28 22:18N 50°19' W 006°02'107 8.3
2016-Apr-28 09:28N 52°05' W 005°51'8 8.9
2016-Apr-28 08:33N 52°13' W 005°49'1010.1
2016-Apr-28 07:33N 52°23' W 005°46'9610.6
2016-Apr-27 22:27N 53°59' W 005°23'9 9.9
2016-Apr-27 21:33N 54°07' W 005°21'1010.2
2016-Apr-27 20:33N 54°17' W 005°18'10 9.9
2016-Apr-27 19:33N 54°27' W 005°19'9 9.5
2016-Apr-27 18:33N 54°36' W 005°24'8 8.1
2016-Apr-27 17:33N 54°43' W 005°31'9 9.1
2016-Apr-27 16:33N 54°41' W 005°46'6 5.6
2016-Apr-27 15:29N 54°37' W 005°54'0 0.0
2016-Apr-27 14:32N 54°37' W 005°54'0 0.0
2016-Apr-27 13:17N 54°37' W 005°54'0 0.0
2016-Apr-27 12:29N 54°37' W 005°54'0 0.0
2016-Apr-27 11:26N 54°37' W 005°54'0 0.0
2016-Apr-27 10:32N 54°37' W 005°54'0 0.0
2016-Apr-27 09:26N 54°37' W 005°54'0 0.0
2016-Apr-27 08:26N 54°37' W 005°54'0 0.0
2016-Apr-27 07:32N 54°37' W 005°54'0 0.0
2016-Apr-27 06:26N 54°37' W 005°54'0 0.0
2016-Apr-27 05:32N 54°37' W 005°54'0 0.0
2016-Apr-27 00:31N 54°37' W 005°54'0 0.0
2016-Apr-26 23:31N 54°37' W 005°54'0 0.0
2016-Apr-26 22:31N 54°37' W 005°54'0 0.0
2016-Apr-26 19:31N 54°37' W 005°54'0 0.0
2016-Apr-26 18:10N 54°37' W 005°54'0 0.0
2016-Apr-26 17:31N 54°37' W 005°54'0 0.0
2016-Apr-26 16:31N 54°37' W 005°54'0 0.0
2016-Apr-26 15:25N 54°37' W 005°54'0 0.0
2016-Apr-26 14:28N 54°37' W 005°54'0 0.0
2016-Apr-26 13:28N 54°37' W 005°54'0 0.0
2016-Apr-26 11:26N 54°37' W 005°54'0 0.0
2016-Apr-26 10:19N 54°37' W 005°54'0 0.4
2016-Apr-26 09:33N 54°37' W 005°54'1010.0
2016-Apr-26 08:33N 54°43' W 005°39'7 7.0
2016-Apr-26 07:33N 54°40' W 005°28'9 8.9
2016-Apr-26 06:33N 54°32' W 005°23'9 9.1
2016-Apr-26 05:33N 54°23' W 005°21'10 9.8
2016-Apr-26 04:33N 54°14' W 005°29'1010.0
2016-Apr-26 03:33N 54°06' W 005°39'9 9.4
2016-Apr-26 02:33N 53°59' W 005°49'10 9.7
2016-Apr-26 01:33N 53°51' W 005°59'10 9.6
2016-Apr-26 00:33N 53°44' W 006°10'6 5.9
2016-Apr-25 23:33N 53°43' W 006°20'  
Track history (hours):
 
Tides and Currents Weather Stations Pressure Air Temp Water Temp Dewpoint Dewpoint Depression Visibility Wind Speed Wind Dir Waves Ship Positions

Clare Christine

Last reported at 2016-May-05 17:33 UTC. Time now 2016-May-05 18:00 UTC.
Position N 52°24' E 004°52'.

Length 89 m; draft 3.5 m.

Type: Cargo ship. MMSI: 305379000.

Date/timePositionNaut miles runAvg speedWind from/ knotsBaromVisibWave heightAir tempDewpointWater temp
2016-May-05 17:33N 52°24' E 004°52'9 8.9
2016-May-05 16:34N 52°28' E 004°39'4 3.8
2016-May-05 15:34N 52°28' E 004°33'5 5.1
2016-May-05 14:33N 52°29' E 004°25'7 7.4
2016-May-05 13:33N 52°28' E 004°12'7 6.6
2016-May-05 12:30N 52°26' E 004°01'0 0.1
2016-May-05 11:33N 52°26' E 004°01'0 0.1
2016-May-05 10:33N 52°26' E 004°01'0 0.0
2016-May-05 09:33N 52°26' E 004°01'0 0.0
2016-May-05 08:33N 52°26' E 004°01'0 0.0
2016-May-05 07:33N 52°26' E 004°01'0 0.0
2016-May-05 06:33N 52°26' E 004°01'0 0.0
2016-May-05 05:33N 52°26' E 004°01'0 0.0
2016-May-05 04:30N 52°26' E 004°01'0 0.0
2016-May-05 03:33N 52°26' E 004°01'0 0.0
2016-May-05 02:33N 52°26' E 004°01'0 0.0
2016-May-05 01:33N 52°26' E 004°01'0 0.0
2016-May-05 00:33N 52°26' E 004°01'0 0.0
2016-May-04 23:33N 52°26' E 004°01'0 0.1
2016-May-04 22:33N 52°26' E 004°01'0 0.0
2016-May-04 21:30N 52°26' E 004°01'0 0.0
2016-May-04 20:33N 52°26' E 004°01'0 0.0
2016-May-04 19:33N 52°26' E 004°01'0 0.0
2016-May-04 18:33N 52°26' E 004°01'0 0.0
2016-May-04 17:33N 52°26' E 004°01'0 0.1
2016-May-04 16:30N 52°26' E 004°01'0 0.0
2016-May-04 15:33N 52°26' E 004°01'0 0.1
2016-May-04 14:33N 52°26' E 004°01'0 0.0
2016-May-04 13:33N 52°26' E 004°01'0 0.0
2016-May-04 12:33N 52°26' E 004°01'0 0.0
2016-May-04 11:33N 52°26' E 004°01'0 0.0
2016-May-04 10:33N 52°26' E 004°01'0 0.1
2016-May-04 09:33N 52°26' E 004°01'0 0.0
2016-May-04 08:33N 52°26' E 004°01'0 0.0
2016-May-04 07:33N 52°26' E 004°01'0 0.0
2016-May-04 06:33N 52°26' E 004°01'0 0.0
2016-May-04 05:33N 52°26' E 004°01'0 0.1
2016-May-04 04:30N 52°26' E 004°01'6 6.5
2016-May-04 03:33N 52°24' E 003°52'1110.0
2016-May-04 02:26N 52°21' E 003°34'910.3
2016-May-04 01:33N 52°15' E 003°23'26 7.7
2016-May-03 22:06N 51°56' E 002°51'11 7.3
2016-May-03 20:33N 51°53' E 002°34'7 6.6
2016-May-03 19:33N 51°53' E 002°24'6 6.0
2016-May-03 18:33N 51°53' E 002°14'5 5.3
2016-May-03 17:33N 51°52' E 002°06'5 5.1
2016-May-03 16:33N 51°50' E 001°58'8 8.0
2016-May-03 15:33N 51°49' E 001°45'9 9.3
2016-May-03 14:33N 51°47' E 001°30'1110.9
2016-May-03 13:33N 51°40' E 001°17'1111.2
2016-May-03 12:32N 51°33' E 001°03'2 2.1
2016-May-03 11:32N 51°31' E 001°01'0 0.0
2016-May-03 10:32N 51°31' E 001°01'0 0.0
2016-May-03 09:32N 51°31' E 001°00'0 0.1
2016-May-03 08:32N 51°31' E 001°00'0 0.0
2016-May-03 07:32N 51°31' E 001°00'0 0.0
2016-May-03 06:29N 51°31' E 001°00'0 0.0
2016-May-03 05:29N 51°31' E 001°00'0 0.1
2016-May-03 04:32N 51°31' E 001°00'0 0.1
2016-May-03 03:32N 51°31' E 001°01'0 0.0
2016-May-03 02:32N 51°31' E 001°01'0 0.0
2016-May-03 01:32N 51°31' E 001°01'0 0.0
2016-May-03 00:32N 51°31' E 001°01'0 0.0
2016-May-02 23:32N 51°31' E 001°01'0 0.0
2016-May-02 22:32N 51°31' E 001°01'0 0.0
2016-May-02 21:32N 51°31' E 001°01'0 0.0
2016-May-02 20:23N 51°31' E 001°00'0 0.0
2016-May-02 19:29N 51°31' E 001°00'0 0.1
2016-May-02 18:29N 51°31' E 001°00'0 0.0
2016-May-02 17:32N 51°31' E 001°00'0 0.0
2016-May-02 16:32N 51°31' E 001°00'0 0.0
2016-May-02 15:32N 51°31' E 001°00'0 0.0
2016-May-02 14:32N 51°31' E 001°00'0 0.0
2016-May-02 13:32N 51°31' E 001°01'0 0.0
2016-May-02 12:32N 51°31' E 001°01'0 0.0
2016-May-02 11:32N 51°31' E 001°01'0 0.0
2016-May-02 10:32N 51°31' E 001°01'1 0.5
2016-May-02 09:33N 51°31' E 001°01'1010.3
2016-May-02 08:33N 51°29' E 000°45'1110.8
2016-May-02 07:33N 51°29' E 000°28'8 7.5
2016-May-02 06:33N 51°28' E 000°16'4 3.7
2016-May-02 05:33N 51°29' E 000°10'0 0.0
2016-May-02 04:33N 51°29' E 000°10'0 0.0
2016-May-02 03:33N 51°29' E 000°10'0 0.0
2016-May-02 02:33N 51°29' E 000°10'0 0.0
2016-May-02 01:33N 51°29' E 000°10'0 0.0
2016-May-02 00:33N 51°29' E 000°10'0 0.0
2016-May-01 23:33N 51°29' E 000°10'0 0.0
2016-May-01 22:33N 51°29' E 000°10'0 0.0
2016-May-01 21:33N 51°29' E 000°10'0 0.0
2016-May-01 20:33N 51°29' E 000°10'0 0.0
2016-May-01 19:33N 51°29' E 000°10'0 0.0
2016-May-01 18:33N 51°29' E 000°10'0 0.0
2016-May-01 17:30N 51°29' E 000°10'0 0.0
2016-May-01 16:33N 51°29' E 000°10'0 0.0
2016-May-01 15:33N 51°29' E 000°10'0 0.0
2016-May-01 14:33N 51°29' E 000°10'0 0.0
2016-May-01 13:33N 51°29' E 000°10'0 0.0
2016-May-01 12:33N 51°29' E 000°10'0 0.0
2016-May-01 11:33N 51°29' E 000°10'0 0.0
2016-May-01 10:33N 51°29' E 000°10'0 0.0
2016-May-01 09:33N 51°29' E 000°10'0 0.0
2016-May-01 08:33N 51°29' E 000°10'0 0.0
2016-May-01 07:33N 51°29' E 000°10'0 0.0
2016-May-01 06:33N 51°29' E 000°10'0 0.0
2016-May-01 05:33N 51°29' E 000°10'0 0.0
2016-May-01 04:33N 51°29' E 000°10'0 0.0
2016-May-01 03:33N 51°29' E 000°10'3 2.6
2016-May-01 02:34N 51°28' E 000°14'8 8.1
2016-May-01 01:33N 51°29' E 000°27'9 8.8
2016-May-01 00:33N 51°30' E 000°41'9 8.9
2016-Apr-30 23:33N 51°30' E 000°56'2 1.6
2016-Apr-30 22:30N 51°30' E 000°58'0 0.0
2016-Apr-30 21:33N 51°30' E 000°58'0 0.0
2016-Apr-30 20:33N 51°30' E 000°58'0 0.0
2016-Apr-30 19:33N 51°30' E 000°58'0 0.1
2016-Apr-30 18:27N 51°30' E 000°58'0 0.1
2016-Apr-30 17:33N 51°30' E 000°58'0 0.0
2016-Apr-30 16:33N 51°30' E 000°58'0 0.0
2016-Apr-30 15:33N 51°30' E 000°58'0 0.0
2016-Apr-30 14:33N 51°30' E 000°58'0 0.1
2016-Apr-30 13:33N 51°30' E 000°58'5 4.8
2016-Apr-30 12:33N 51°30' E 001°06'10 9.9
2016-Apr-30 11:33N 51°29' E 001°22'9 8.9
2016-Apr-30 10:33N 51°24' E 001°34'9 8.6
2016-Apr-30 09:33N 51°16' E 001°37'9 8.7
2016-Apr-30 08:33N 51°07' E 001°40'1010.2
2016-Apr-30 07:33N 50°59' E 001°30'1110.4
2016-Apr-30 06:33N 50°50' E 001°22'41 9.8
2016-Apr-30 02:21N 50°26' E 000°30'911.1
2016-Apr-30 01:33N 50°23' E 000°16'1111.3
2016-Apr-30 00:33N 50°20' W 000°01'1111.2
2016-Apr-29 23:33N 50°17' W 000°17'104 9.5
2016-Apr-29 12:33N 49°50' W 002°54'1110.7
2016-Apr-29 11:33N 49°48' W 003°11'1110.7
2016-Apr-29 10:32N 49°49' W 003°27'1110.7
2016-Apr-29 09:33N 49°50' W 003°44'2310.4
2016-Apr-29 07:21N 49°51' W 004°19'1910.2
2016-Apr-29 05:25N 49°53' W 004°50'8 9.6
2016-Apr-29 04:33N 49°54' W 005°03'20 9.2
2016-Apr-29 02:20N 49°54' W 005°34'30 7.5
2016-Apr-28 22:18N 50°19' W 006°02'107 8.3
2016-Apr-28 09:28N 52°05' W 005°51'8 8.9
2016-Apr-28 08:33N 52°13' W 005°49'1010.1
2016-Apr-28 07:33N 52°23' W 005°46'9610.6
2016-Apr-27 22:27N 53°59' W 005°23'9 9.9
2016-Apr-27 21:33N 54°07' W 005°21'1010.2
2016-Apr-27 20:33N 54°17' W 005°18'10 9.9
2016-Apr-27 19:33N 54°27' W 005°19'9 9.5
2016-Apr-27 18:33N 54°36' W 005°24'8 8.1
2016-Apr-27 17:33N 54°43' W 005°31'9 9.1
2016-Apr-27 16:33N 54°41' W 005°46'6 5.6
2016-Apr-27 15:29N 54°37' W 005°54'0 0.0
2016-Apr-27 14:32N 54°37' W 005°54'0 0.0
2016-Apr-27 13:17N 54°37' W 005°54'0 0.0
2016-Apr-27 12:29N 54°37' W 005°54'0 0.0
2016-Apr-27 11:26N 54°37' W 005°54'0 0.0
2016-Apr-27 10:32N 54°37' W 005°54'0 0.0
2016-Apr-27 09:26N 54°37' W 005°54'0 0.0
2016-Apr-27 08:26N 54°37' W 005°54'0 0.0
2016-Apr-27 07:32N 54°37' W 005°54'0 0.0
2016-Apr-27 06:26N 54°37' W 005°54'0 0.0
2016-Apr-27 05:32N 54°37' W 005°54'0 0.0
2016-Apr-27 00:31N 54°37' W 005°54'0 0.0
2016-Apr-26 23:31N 54°37' W 005°54'0 0.0
2016-Apr-26 22:31N 54°37' W 005°54'0 0.0
2016-Apr-26 19:31N 54°37' W 005°54'0 0.0
2016-Apr-26 18:10N 54°37' W 005°54'0 0.0
2016-Apr-26 17:31N 54°37' W 005°54'0 0.0
2016-Apr-26 16:31N 54°37' W 005°54'0 0.0
2016-Apr-26 15:25N 54°37' W 005°54'0 0.0
2016-Apr-26 14:28N 54°37' W 005°54'0 0.0
2016-Apr-26 13:28N 54°37' W 005°54'0 0.0
2016-Apr-26 11:26N 54°37' W 005°54'0 0.0
2016-Apr-26 10:19N 54°37' W 005°54'0 0.4
2016-Apr-26 09:33N 54°37' W 005°54'1010.0
2016-Apr-26 08:33N 54°43' W 005°39'7 7.0
2016-Apr-26 07:33N 54°40' W 005°28'9 8.9
2016-Apr-26 06:33N 54°32' W 005°23'9 9.1
2016-Apr-26 05:33N 54°23' W 005°21'10 9.8
2016-Apr-26 04:33N 54°14' W 005°29'1010.0
2016-Apr-26 03:33N 54°06' W 005°39'9 9.4
2016-Apr-26 02:33N 53°59' W 005°49'10 9.7
2016-Apr-26 01:33N 53°51' W 005°59'10 9.6
2016-Apr-26 00:33N 53°44' W 006°10'6 5.9
2016-Apr-25 23:33N 53°43' W 006°20'  

Dump ship's entire track history